^^

Weather Underground History

Daily Summary for February 25, 2018 Units:  Metric    English   Both
Daily Weekly Monthly Yearly
  High: Low: Average:
Temperature: 18 °C 7 °C 11.9 °C
Dew Point: 10 °C 6 °C 7.5 °C
Humidity: 94% 51% 77%
Wind Speed: 13km/h 0km/h 4.3km/h
Wind Gust: 23km/h - -
Wind- - WNW
Pressure: 1015.0 hPa 1010.1 hPa -
Precipitation: 0.2 mm    
 
 
Tabular Data for February 25, 2018
Time Temperature Dew Point Pressure Wind Wind Speed Wind Gust Humidity Rainfall Rate (Hourly) solar
00:04 7 °C 6 °C 1010.2 hPa Calm     93% 0.0 mm 0 W/m2
00:09 7 °C 6 °C 1010.2 hPa Calm     93% 0.0 mm 0 W/m2
00:14 7 °C 6 °C 1010.3 hPa Calm     93% 0.0 mm 0 W/m2
00:19 7 °C 6 °C 1010.3 hPa Calm     93% 0.0 mm 0 W/m2
00:24 7 °C 6 °C 1010.3 hPa Calm     93% 0.0 mm 0 W/m2
00:29 7 °C 6 °C 1010.2 hPa Calm     93% 0.0 mm 0 W/m2
00:34 7 °C 6 °C 1010.2 hPa Calm     93% 0.0 mm 0 W/m2
00:39 7 °C 6 °C 1010.2 hPa Calm     93% 0.0 mm 0 W/m2
00:44 7 °C 6 °C 1010.2 hPa Calm     94% 0.0 mm 0 W/m2
00:49 7 °C 6 °C 1010.1 hPa Calm     94% 0.0 mm 0 W/m2
00:54 7 °C 6 °C 1010.1 hPa Calm     94% 0.0 mm 0 W/m2
00:59 7 °C 6 °C 1010.1 hPa Calm     94% 0.0 mm 0 W/m2
01:04 7 °C 6 °C 1010.1 hPa Calm     93% 0.0 mm 0 W/m2
01:09 7 °C 6 °C 1010.2 hPa Calm     93% 0.0 mm 0 W/m2
01:14 7 °C 6 °C 1010.2 hPa Calm     93% 0.0 mm 0 W/m2
01:19 7 °C 6 °C 1010.2 hPa Calm     93% 0.0 mm 0 W/m2
01:24 7 °C 6 °C 1010.2 hPa Calm     93% 0.0 mm 0 W/m2
01:29 7 °C 6 °C 1010.2 hPa WNW 1 km/h 8 km/h 93% 0.0 mm 0 W/m2
01:34 7 °C 6 °C 1010.2 hPa NNW 1 km/h 8 km/h 94% 0.0 mm 0 W/m2
01:39 7 °C 6 °C 1010.2 hPa Calm     94% 0.0 mm 0 W/m2
01:44 7 °C 6 °C 1010.2 hPa Calm     94% 0.0 mm 0 W/m2
01:49 7 °C 6 °C 1010.2 hPa Calm   3 km/h 94% 0.0 mm 0 W/m2
01:54 7 °C 6 °C 1010.2 hPa NNW 1 km/h 5 km/h 94% 0.0 mm 0 W/m2
01:59 7 °C 6 °C 1010.2 hPa NNW 4 km/h 10 km/h 94% 0.0 mm 0 W/m2
02:04 7 °C 7 °C 1010.2 hPa NNW 3 km/h 6 km/h 94% 0.0 mm 0 W/m2
02:09 8 °C 7 °C 1010.3 hPa NW 4 km/h 8 km/h 94% 0.0 mm 0 W/m2
02:14 8 °C 7 °C 1010.3 hPa WNW 1 km/h 6 km/h 94% 0.0 mm 0 W/m2
02:19 8 °C 7 °C 1010.3 hPa Calm   3 km/h 94% 0.0 mm 0 W/m2
02:24 8 °C 7 °C 1010.3 hPa WNW 2 km/h 6 km/h 94% 0.0 mm 0 W/m2
02:29 8 °C 7 °C 1010.3 hPa WNW 2 km/h 6 km/h 94% 0.0 mm 0 W/m2
02:34 8 °C 7 °C 1010.3 hPa WNW 1 km/h 5 km/h 94% 0.0 mm 0 W/m2
02:39 8 °C 7 °C 1010.3 hPa Calm     94% 0.0 mm 0 W/m2
02:44 8 °C 7 °C 1010.3 hPa Calm     93% 0.0 mm 0 W/m2
02:49 8 °C 7 °C 1010.3 hPa Calm     93% 0.0 mm 0 W/m2
02:54 8 °C 7 °C 1010.3 hPa NW 2 km/h 11 km/h 93% 0.0 mm 0 W/m2
02:59 8 °C 7 °C 1010.4 hPa NW 1 km/h 6 km/h 94% 0.0 mm 0 W/m2
03:04 8 °C 7 °C 1010.3 hPa NW 2 km/h 6 km/h 94% 0.0 mm 0 W/m2
03:09 8 °C 7 °C 1010.4 hPa NW 4 km/h 8 km/h 94% 0.0 mm 0 W/m2
03:14 8 °C 7 °C 1010.4 hPa WNW 5 km/h 11 km/h 94% 0.0 mm 0 W/m2
03:19 8 °C 7 °C 1010.5 hPa West 4 km/h 11 km/h 94% 0.0 mm 0 W/m2
03:24 8 °C 7 °C 1010.5 hPa West 2 km/h 8 km/h 94% 0.0 mm 0 W/m2
03:29 8 °C 7 °C 1010.5 hPa Calm   3 km/h 94% 0.0 mm 0 W/m2
03:34 8 °C 7 °C 1010.5 hPa Calm     93% 0.0 mm 0 W/m2
03:39 8 °C 7 °C 1010.5 hPa Calm     93% 0.0 mm 0 W/m2
03:44 8 °C 7 °C 1010.5 hPa Calm     93% 0.0 mm 0 W/m2
03:49 8 °C 7 °C 1010.5 hPa Calm     93% 0.0 mm 0 W/m2
03:54 8 °C 7 °C 1010.6 hPa Calm     93% 0.0 mm 0 W/m2
03:59 8 °C 7 °C 1010.5 hPa Calm     93% 0.0 mm 0 W/m2
04:04 8 °C 7 °C 1010.5 hPa West 2 km/h 8 km/h 93% 0.0 mm 0 W/m2
04:09 8 °C 7 °C 1010.5 hPa West 3 km/h 8 km/h 93% 0.0 mm 0 W/m2
04:14 8 °C 7 °C 1010.5 hPa West 1 km/h 6 km/h 94% 0.0 mm 0 W/m2
04:19 8 °C 7 °C 1010.5 hPa Calm   6 km/h 94% 0.0 mm 0 W/m2
04:24 8 °C 7 °C 1010.6 hPa Calm     94% 0.0 mm 0 W/m2
04:29 8 °C 7 °C 1010.6 hPa West 3 km/h 8 km/h 94% 0.0 mm 0 W/m2
04:34 8 °C 7 °C 1010.6 hPa West 4 km/h 8 km/h 94% 0.0 mm 0 W/m2
04:39 8 °C 7 °C 1010.6 hPa West 5 km/h 10 km/h 94% 0.0 mm 0 W/m2
04:44 8 °C 7 °C 1010.6 hPa West 7 km/h 13 km/h 94% 0.0 mm 0 W/m2
04:49 8 °C 7 °C 1010.7 hPa WSW 6 km/h 13 km/h 94% 0.0 mm 0 W/m2
04:54 8 °C 8 °C 1010.7 hPa WSW 4 km/h 8 km/h 94% 0.0 mm 0 W/m2
04:59 8 °C 8 °C 1010.8 hPa WSW 1 km/h 6 km/h 94% 0.0 mm 0 W/m2
05:04 8 °C 8 °C 1010.8 hPa WSW 1 km/h 6 km/h 94% 0.0 mm 0 W/m2
05:09 8 °C 7 °C 1010.9 hPa Calm   6 km/h 94% 0.0 mm 0 W/m2
05:14 8 °C 7 °C 1011.0 hPa Calm     94% 0.0 mm 0 W/m2
05:19 8 °C 7 °C 1010.9 hPa WSW 1 km/h 6 km/h 94% 0.0 mm 0 W/m2
05:24 8 °C 7 °C 1010.9 hPa WSW 4 km/h 8 km/h 94% 0.0 mm 0 W/m2
05:29 8 °C 7 °C 1010.9 hPa WSW 3 km/h 8 km/h 94% 0.0 mm 0 W/m2
05:34 8 °C 7 °C 1010.9 hPa WSW 2 km/h 5 km/h 94% 0.0 mm 0 W/m2
05:39 8 °C 7 °C 1010.9 hPa WSW 1 km/h 5 km/h 94% 0.0 mm 0 W/m2
05:44 8 °C 7 °C 1011.0 hPa WSW 2 km/h 5 km/h 94% 0.0 mm 0 W/m2
05:49 8 °C 7 °C 1011.0 hPa WSW 3 km/h 8 km/h 94% 0.0 mm 0 W/m2
05:54 8 °C 7 °C 1011.0 hPa WSW 2 km/h 6 km/h 94% 0.0 mm 0 W/m2
05:59 8 °C 7 °C 1011.1 hPa WSW 2 km/h 5 km/h 94% 0.0 mm 0 W/m2
06:04 8 °C 7 °C 1011.2 hPa Calm   5 km/h 94% 0.0 mm 0 W/m2
06:09 8 °C 7 °C 1011.3 hPa Calm     94% 0.0 mm 7 W/m2
06:14 8 °C 7 °C 1011.3 hPa Calm     93% 0.0 mm 11 W/m2
06:19 8 °C 7 °C 1011.3 hPa WSW 1 km/h 6 km/h 93% 0.0 mm 12 W/m2
06:24 8 °C 7 °C 1011.3 hPa WSW 2 km/h 6 km/h 93% 0.0 mm 14 W/m2
06:29 8 °C 7 °C 1011.3 hPa WSW 3 km/h 5 km/h 93% 0.0 mm 18 W/m2
06:34 8 °C 7 °C 1011.3 hPa WSW 3 km/h 8 km/h 94% 0.0 mm 21 W/m2
06:39 8 °C 7 °C 1011.4 hPa WSW 2 km/h 8 km/h 94% 0.0 mm 35 W/m2
06:44 8 °C 7 °C 1011.5 hPa Calm   3 km/h 94% 0.0 mm 44 W/m2
06:49 8 °C 7 °C 1011.5 hPa WSW 1 km/h 5 km/h 94% 0.0 mm 53 W/m2
06:54 8 °C 7 °C 1011.6 hPa Calm   5 km/h 94% 0.0 mm 63 W/m2
06:59 8 °C 7 °C 1011.7 hPa Calm     94% 0.0 mm 72 W/m2
07:04 8 °C 7 °C 1011.8 hPa Calm     94% 0.0 mm 81 W/m2
07:09 8 °C 8 °C 1011.8 hPa Calm     94% 0.0 mm 95 W/m2
07:14 8 °C 8 °C 1011.9 hPa Calm     94% 0.0 mm 109 W/m2
07:19 9 °C 8 °C 1011.9 hPa Calm     94% 0.0 mm 125 W/m2
07:24 9 °C 8 °C 1011.9 hPa WSW 1 km/h 5 km/h 94% 0.0 mm 137 W/m2
07:29 9 °C 8 °C 1011.9 hPa WSW 3 km/h 6 km/h 94% 0.0 mm 149 W/m2
07:34 9 °C 8 °C 1011.9 hPa WSW 3 km/h 6 km/h 94% 0.0 mm 160 W/m2
07:39 9 °C 8 °C 1011.9 hPa WSW 3 km/h 10 km/h 94% 0.0 mm 160 W/m2
07:44 9 °C 8 °C 1012.0 hPa West 3 km/h 10 km/h 94% 0.0 mm 98 W/m2
07:49 9 °C 8 °C 1012.0 hPa West 4 km/h 10 km/h 94% 0.0 mm 86 W/m2
07:54 9 °C 8 °C 1012.1 hPa WNW 5 km/h 10 km/h 93% 0.0 mm 195 W/m2
07:59 10 °C 9 °C 1012.1 hPa WNW 6 km/h 11 km/h 92% 0.0 mm 211 W/m2
08:04 10 °C 9 °C 1012.2 hPa NW 6 km/h 11 km/h 92% 0.0 mm 137 W/m2
08:09 10 °C 9 °C 1012.2 hPa WNW 5 km/h 11 km/h 91% 0.0 mm 221 W/m2
08:14 11 °C 9 °C 1012.2 hPa WNW 5 km/h 8 km/h 90% 0.0 mm 214 W/m2
08:19 11 °C 9 °C 1012.3 hPa NW 7 km/h 13 km/h 90% 0.0 mm 262 W/m2
08:24 11 °C 9 °C 1012.3 hPa WNW 6 km/h 11 km/h 89% 0.0 mm 274 W/m2
08:29 11 °C 9 °C 1012.4 hPa WNW 6 km/h 11 km/h 89% 0.0 mm 278 W/m2
08:34 11 °C 9 °C 1012.4 hPa WNW 6 km/h 11 km/h 88% 0.0 mm 292 W/m2
08:39 11 °C 9 °C 1012.5 hPa WNW 7 km/h 11 km/h 88% 0.0 mm 325 W/m2
08:44 11 °C 9 °C 1012.5 hPa WNW 9 km/h 14 km/h 87% 0.0 mm 336 W/m2
08:49 12 °C 9 °C 1012.5 hPa WNW 9 km/h 23 km/h 87% 0.0 mm 352 W/m2
08:54 12 °C 9 °C 1012.5 hPa WNW 8 km/h 14 km/h 86% 0.0 mm 374 W/m2
08:59 12 °C 9 °C 1012.6 hPa NW 8 km/h 14 km/h 86% 0.0 mm 387 W/m2
09:04 12 °C 9 °C 1012.6 hPa NW 8 km/h 23 km/h 85% 0.0 mm 406 W/m2
09:09 12 °C 9 °C 1012.6 hPa WNW 11 km/h 23 km/h 84% 0.0 mm 425 W/m2
09:14 12 °C 9 °C 1012.5 hPa NW 10 km/h 16 km/h 83% 0.0 mm 432 W/m2
09:19 12 °C 9 °C 1012.6 hPa WNW 10 km/h 18 km/h 82% 0.0 mm 436 W/m2
09:24 12 °C 9 °C 1012.6 hPa NW 9 km/h 16 km/h 82% 0.0 mm 450 W/m2
09:29 12 °C 9 °C 1012.6 hPa WNW 8 km/h 16 km/h 82% 0.0 mm 468 W/m2
09:34 13 °C 10 °C 1012.6 hPa NW 7 km/h 13 km/h 82% 0.0 mm 480 W/m2
09:39 13 °C 10 °C 1012.6 hPa WNW 8 km/h 21 km/h 81% 0.0 mm 485 W/m2
09:44 13 °C 9 °C 1012.6 hPa NW 9 km/h 21 km/h 79% 0.0 mm 547 W/m2
09:49 13 °C 9 °C 1012.6 hPa NW 9 km/h 16 km/h 79% 0.0 mm 584 W/m2
09:54 13 °C 9 °C 1012.7 hPa NW 7 km/h 19 km/h 79% 0.0 mm 601 W/m2
09:59 13 °C 9 °C 1012.8 hPa WNW 8 km/h 19 km/h 78% 0.0 mm 613 W/m2
10:04 13 °C 9 °C 1012.8 hPa NW 8 km/h 18 km/h 77% 0.0 mm 596 W/m2
10:09 13 °C 9 °C 1012.8 hPa WNW 7 km/h 13 km/h 76% 0.0 mm 160 W/m2
10:14 13 °C 9 °C 1012.8 hPa NW 6 km/h 11 km/h 76% 0.0 mm 160 W/m2
10:19 13 °C 9 °C 1012.9 hPa NW 8 km/h 13 km/h 77% 0.0 mm 172 W/m2
10:24 13 °C 9 °C 1013.0 hPa NW 8 km/h 16 km/h 77% 0.0 mm 202 W/m2
10:29 13 °C 9 °C 1013.0 hPa WNW 7 km/h 11 km/h 78% 0.0 mm 251 W/m2
10:34 13 °C 9 °C 1013.0 hPa WNW 7 km/h 13 km/h 78% 0.0 mm 251 W/m2
10:39 13 °C 9 °C 1013.0 hPa West 6 km/h 13 km/h 76% 0.0 mm 290 W/m2
10:44 13 °C 9 °C 1013.1 hPa NW 7 km/h 14 km/h 76% 0.0 mm 772 W/m2
10:49 13 °C 9 °C 1013.2 hPa WNW 7 km/h 14 km/h 75% 0.0 mm 260 W/m2
10:54 13 °C 9 °C 1013.2 hPa NW 6 km/h 16 km/h 74% 0.0 mm 788 W/m2
10:59 13 °C 9 °C 1013.2 hPa NW 9 km/h 16 km/h 72% 0.0 mm 835 W/m2
11:04 14 °C 8 °C 1013.2 hPa WNW 7 km/h 16 km/h 70% 0.0 mm 788 W/m2
11:09 14 °C 9 °C 1013.1 hPa WNW 7 km/h 18 km/h 71% 0.0 mm 830 W/m2
11:14 14 °C 9 °C 1013.1 hPa WNW 7 km/h 18 km/h 69% 0.0 mm 853 W/m2
11:19 14 °C 9 °C 1013.1 hPa NW 7 km/h 14 km/h 67% 0.0 mm 397 W/m2
11:24 14 °C 9 °C 1013.1 hPa WNW 8 km/h 16 km/h 69% 0.0 mm 810 W/m2
11:29 14 °C 9 °C 1013.2 hPa WNW 9 km/h 16 km/h 69% 0.0 mm 898 W/m2
11:34 15 °C 9 °C 1013.2 hPa NW 9 km/h 14 km/h 68% 0.0 mm 898 W/m2
11:39 15 °C 8 °C 1013.3 hPa NW 10 km/h 16 km/h 66% 0.0 mm 849 W/m2
11:44 15 °C 9 °C 1013.2 hPa NW 8 km/h 18 km/h 67% 0.0 mm 928 W/m2
11:49 16 °C 9 °C 1013.2 hPa NW 8 km/h 18 km/h 66% 0.0 mm 940 W/m2
11:54 15 °C 9 °C 1013.3 hPa WNW 8 km/h 14 km/h 65% 0.0 mm 940 W/m2
11:59 15 °C 9 °C 1013.3 hPa WNW 7 km/h 16 km/h 65% 0.0 mm 826 W/m2
12:04 16 °C 9 °C 1013.3 hPa WNW 9 km/h 16 km/h 65% 0.0 mm 962 W/m2
12:09 15 °C 8 °C 1013.3 hPa NW 6 km/h 14 km/h 64% 0.0 mm 381 W/m2
12:14 15 °C 8 °C 1013.3 hPa WNW 8 km/h 14 km/h 65% 0.0 mm 809 W/m2
12:19 15 °C 9 °C 1013.3 hPa WNW 9 km/h 16 km/h 67% 0.0 mm 803 W/m2
12:24 16 °C 8 °C 1013.3 hPa WNW 9 km/h 16 km/h 63% 0.0 mm 380 W/m2
12:29 16 °C 8 °C 1013.3 hPa NW 9 km/h 19 km/h 61% 0.0 mm 367 W/m2
12:34 15 °C 8 °C 1013.3 hPa NW 7 km/h 19 km/h 61% 0.0 mm 294 W/m2
12:39 15 °C 8 °C 1013.4 hPa NW 9 km/h 16 km/h 60% 0.0 mm 313 W/m2
12:44 15 °C 8 °C 1013.4 hPa NW 9 km/h 18 km/h 61% 0.0 mm 327 W/m2
12:49 16 °C 8 °C 1013.3 hPa WNW 9 km/h 14 km/h 61% 0.0 mm 283 W/m2
12:54 16 °C 7 °C 1013.4 hPa WNW 8 km/h 16 km/h 58% 0.0 mm 724 W/m2
12:59 16 °C 8 °C 1013.4 hPa West 10 km/h 19 km/h 62% 0.0 mm 724 W/m2
13:04 16 °C 8 °C 1013.4 hPa WNW 8 km/h 19 km/h 61% 0.0 mm 898 W/m2
13:09 16 °C 8 °C 1013.4 hPa NW 10 km/h 16 km/h 57% 0.0 mm 842 W/m2
13:14 16 °C 8 °C 1013.4 hPa WNW 8 km/h 18 km/h 57% 0.0 mm 870 W/m2
13:19 17 °C 8 °C 1013.4 hPa West 6 km/h 13 km/h 59% 0.0 mm 893 W/m2
13:24 17 °C 8 °C 1013.4 hPa NW 4 km/h 13 km/h 55% 0.0 mm 907 W/m2
13:29 17 °C 7 °C 1013.3 hPa NW 7 km/h 21 km/h 53% 0.0 mm 318 W/m2
13:34 16 °C 7 °C 1013.4 hPa NW 7 km/h 14 km/h 54% 0.0 mm 889 W/m2
13:39 16 °C 7 °C 1013.4 hPa WNW 8 km/h 16 km/h 54% 0.0 mm 889 W/m2
13:44 17 °C 8 °C 1013.4 hPa NW 8 km/h 16 km/h 55% 0.0 mm 898 W/m2
13:49 17 °C 8 °C 1013.4 hPa NW 8 km/h 18 km/h 55% 0.0 mm 877 W/m2
13:54 17 °C 7 °C 1013.4 hPa WNW 9 km/h 18 km/h 53% 0.0 mm 851 W/m2
13:59 16 °C 7 °C 1013.5 hPa NW 7 km/h 14 km/h 55% 0.0 mm 218 W/m2
14:04 16 °C 7 °C 1013.5 hPa WNW 7 km/h 14 km/h 57% 0.0 mm 814 W/m2
14:09 16 °C 8 °C 1013.5 hPa NW 7 km/h 14 km/h 58% 0.0 mm 814 W/m2
14:14 16 °C 7 °C 1013.5 hPa NW 7 km/h 13 km/h 57% 0.0 mm 735 W/m2
14:19 16 °C 8 °C 1013.5 hPa WNW 9 km/h 21 km/h 58% 0.0 mm 728 W/m2
14:24 16 °C 9 °C 1013.5 hPa WNW 12 km/h 21 km/h 61% 0.0 mm 733 W/m2
14:29 17 °C 9 °C 1013.5 hPa WNW 10 km/h 21 km/h 60% 0.0 mm 701 W/m2
14:34 17 °C 9 °C 1013.5 hPa NW 9 km/h 18 km/h 59% 0.0 mm 701 W/m2
14:39 17 °C 9 °C 1013.5 hPa WNW 8 km/h 19 km/h 59% 0.0 mm 754 W/m2
14:44 17 °C 8 °C 1013.5 hPa WNW 11 km/h 19 km/h 57% 0.0 mm 831 W/m2
14:49 17 °C 9 °C 1013.6 hPa WNW 11 km/h 19 km/h 58% 0.0 mm 831 W/m2
14:54 17 °C 8 °C 1013.7 hPa WNW 13 km/h 21 km/h 58% 0.0 mm 413 W/m2
14:59 16 °C 8 °C 1013.8 hPa WNW 10 km/h 16 km/h 58% 0.0 mm 220 W/m2
15:04 16 °C 7 °C 1013.8 hPa WNW 7 km/h 16 km/h 58% 0.0 mm 304 W/m2
15:09 16 °C 8 °C 1013.8 hPa WNW 8 km/h 14 km/h 61% 0.0 mm 710 W/m2
15:14 16 °C 9 °C 1013.8 hPa WNW 8 km/h 16 km/h 62% 0.0 mm 710 W/m2
15:19 17 °C 9 °C 1013.8 hPa WNW 9 km/h 16 km/h 61% 0.0 mm 740 W/m2
15:24 17 °C 9 °C 1013.8 hPa West 9 km/h 21 km/h 60% 0.0 mm 777 W/m2
15:29 17 °C 9 °C 1013.8 hPa WNW 10 km/h 18 km/h 59% 0.0 mm 742 W/m2
15:34 17 °C 9 °C 1013.7 hPa West 10 km/h 16 km/h 58% 0.0 mm 721 W/m2
15:39 18 °C 9 °C 1013.7 hPa WNW 10 km/h 19 km/h 57% 0.0 mm 684 W/m2
15:44 17 °C 8 °C 1013.7 hPa NW 7 km/h 14 km/h 56% 0.0 mm 680 W/m2
15:49 17 °C 8 °C 1013.6 hPa WNW 4 km/h 10 km/h 53% 0.0 mm 682 W/m2
15:54 18 °C 8 °C 1013.6 hPa NW 6 km/h 18 km/h 53% 0.0 mm 677 W/m2
15:59 18 °C 8 °C 1013.6 hPa NW 10 km/h 21 km/h 53% 0.0 mm 628 W/m2
16:04 18 °C 8 °C 1013.6 hPa WNW 8 km/h 21 km/h 53% 0.0 mm 628 W/m2
16:09 18 °C 8 °C 1013.6 hPa NW 10 km/h 18 km/h 51% 0.0 mm 573 W/m2
16:14 18 °C 7 °C 1013.6 hPa WNW 9 km/h 16 km/h 51% 0.0 mm 550 W/m2
16:19 18 °C 8 °C 1013.6 hPa WNW 8 km/h 14 km/h 52% 0.0 mm 543 W/m2
16:24 18 °C 8 °C 1013.6 hPa WNW 8 km/h 16 km/h 53% 0.0 mm 547 W/m2
16:29 18 °C 8 °C 1013.6 hPa NW 8 km/h 14 km/h 52% 0.0 mm 547 W/m2
16:34 17 °C 7 °C 1013.7 hPa NW 8 km/h 18 km/h 52% 0.0 mm 506 W/m2
16:39 17 °C 7 °C 1013.6 hPa NW 7 km/h 18 km/h 52% 0.0 mm 499 W/m2
16:44 17 °C 7 °C 1013.7 hPa NW 8 km/h 14 km/h 52% 0.0 mm 483 W/m2
16:49 17 °C 7 °C 1013.7 hPa NW 9 km/h 18 km/h 53% 0.0 mm 478 W/m2
16:54 17 °C 7 °C 1013.8 hPa WNW 9 km/h 18 km/h 53% 0.0 mm 473 W/m2
16:59 17 °C 7 °C 1013.9 hPa NW 9 km/h 19 km/h 53% 0.0 mm 439 W/m2
17:04 17 °C 7 °C 1013.8 hPa NW 7 km/h 16 km/h 54% 0.0 mm 439 W/m2
17:09 17 °C 7 °C 1013.8 hPa NW 9 km/h 14 km/h 53% 0.0 mm 422 W/m2
17:14 17 °C 7 °C 1013.9 hPa WNW 8 km/h 14 km/h 53% 0.0 mm 410 W/m2
17:19 17 °C 7 °C 1014.0 hPa NW 9 km/h 18 km/h 52% 0.0 mm 396 W/m2
17:24 17 °C 7 °C 1014.0 hPa WNW 8 km/h 14 km/h 53% 0.0 mm 374 W/m2
17:29 17 °C 7 °C 1014.0 hPa NW 10 km/h 16 km/h 52% 0.0 mm 360 W/m2
17:34 17 °C 7 °C 1014.1 hPa NW 7 km/h 16 km/h 54% 0.0 mm 360 W/m2
17:39 17 °C 7 °C 1014.1 hPa NW 9 km/h 16 km/h 53% 0.0 mm 352 W/m2
17:44 17 °C 7 °C 1014.0 hPa WNW 9 km/h 16 km/h 53% 0.0 mm 332 W/m2
17:49 17 °C 7 °C 1014.0 hPa WNW 11 km/h 19 km/h 51% 0.0 mm 313 W/m2
17:54 17 °C 7 °C 1014.0 hPa WNW 10 km/h 19 km/h 51% 0.0 mm 302 W/m2
17:59 17 °C 7 °C 1014.0 hPa WNW 8 km/h 16 km/h 52% 0.0 mm 285 W/m2
18:04 17 °C 7 °C 1014.0 hPa NW 8 km/h 16 km/h 53% 0.0 mm 269 W/m2
18:09 17 °C 7 °C 1014.0 hPa NW 8 km/h 16 km/h 52% 0.0 mm 258 W/m2
18:14 17 °C 7 °C 1014.0 hPa WNW 8 km/h 14 km/h 52% 0.0 mm 244 W/m2
18:19 16 °C 7 °C 1014.0 hPa WNW 8 km/h 16 km/h 54% 0.0 mm 213 W/m2
18:24 16 °C 7 °C 1014.0 hPa WNW 10 km/h 16 km/h 54% 0.0 mm 204 W/m2
18:29 16 °C 7 °C 1014.0 hPa WNW 10 km/h 18 km/h 56% 0.0 mm 183 W/m2
18:34 16 °C 7 °C 1014.0 hPa NW 9 km/h 16 km/h 56% 0.0 mm 158 W/m2
18:39 16 °C 7 °C 1014.0 hPa NW 7 km/h 14 km/h 56% 0.0 mm 165 W/m2
18:44 16 °C 7 °C 1014.0 hPa NW 7 km/h 13 km/h 57% 0.0 mm 151 W/m2
18:49 16 °C 7 °C 1014.0 hPa NW 5 km/h 10 km/h 58% 0.0 mm 141 W/m2
18:54 16 °C 7 °C 1014.0 hPa WNW 6 km/h 14 km/h 59% 0.0 mm 135 W/m2
18:59 16 °C 8 °C 1014.1 hPa NW 4 km/h 11 km/h 59% 0.0 mm 121 W/m2
19:04 16 °C 7 °C 1014.1 hPa NW 5 km/h 10 km/h 58% 0.0 mm 109 W/m2
19:09 16 °C 7 °C 1014.1 hPa NW 3 km/h 10 km/h 58% 0.0 mm 98 W/m2
19:14 16 °C 7 °C 1014.1 hPa NW 3 km/h 8 km/h 58% 0.0 mm 86 W/m2
19:19 16 °C 7 °C 1014.1 hPa NW 5 km/h 11 km/h 58% 0.0 mm 74 W/m2
19:24 16 °C 7 °C 1014.1 hPa NW 4 km/h 10 km/h 59% 0.0 mm 60 W/m2
19:29 15 °C 7 °C 1014.1 hPa NW 4 km/h 10 km/h 59% 0.0 mm 51 W/m2
19:34 15 °C 7 °C 1014.1 hPa NW 3 km/h 8 km/h 59% 0.0 mm 40 W/m2
19:39 15 °C 7 °C 1014.2 hPa NW 3 km/h 10 km/h 60% 0.0 mm 32 W/m2
19:44 14 °C 7 °C 1014.3 hPa NW 2 km/h 8 km/h 61% 0.0 mm 25 W/m2
19:49 14 °C 7 °C 1014.3 hPa NW 1 km/h 6 km/h 62% 0.0 mm 19 W/m2
19:54 14 °C 7 °C 1014.3 hPa NW 3 km/h 6 km/h 62% 0.0 mm 12 W/m2
19:59 14 °C 7 °C 1014.4 hPa NW 3 km/h 6 km/h 63% 0.0 mm 9 W/m2
20:04 13 °C 7 °C 1014.4 hPa NW 2 km/h 6 km/h 64% 0.0 mm 5 W/m2
20:09 13 °C 7 °C 1014.4 hPa NW 2 km/h 6 km/h 66% 0.0 mm 0 W/m2
20:14 13 °C 7 °C 1014.4 hPa Calm   6 km/h 67% 0.0 mm 0 W/m2
20:19 13 °C 7 °C 1014.5 hPa Calm     69% 0.0 mm 0 W/m2
20:24 13 °C 7 °C 1014.5 hPa Calm     70% 0.0 mm 0 W/m2
20:29 12 °C 7 °C 1014.5 hPa Calm     71% 0.0 mm 0 W/m2
20:34 12 °C 7 °C 1014.5 hPa Calm     72% 0.0 mm 0 W/m2
20:39 12 °C 7 °C 1014.6 hPa Calm     73% 0.0 mm 0 W/m2
20:44 12 °C 7 °C 1014.6 hPa Calm     74% 0.0 mm 0 W/m2
20:49 12 °C 7 °C 1014.6 hPa Calm     76% 0.0 mm 0 W/m2
20:54 11 °C 7 °C 1014.6 hPa Calm     77% 0.0 mm 0 W/m2
20:59 11 °C 7 °C 1014.6 hPa Calm     78% 0.0 mm 0 W/m2
21:04 11 °C 7 °C 1014.6 hPa Calm     78% 0.0 mm 0 W/m2
21:09 11 °C 7 °C 1014.7 hPa Calm     79% 0.0 mm 0 W/m2
21:14 11 °C 7 °C 1014.7 hPa Calm     80% 0.0 mm 0 W/m2
21:19 11 °C 7 °C 1014.7 hPa Calm     81% 0.0 mm 0 W/m2
21:24 11 °C 7 °C 1014.7 hPa Calm     80% 0.0 mm 0 W/m2
21:29 11 °C 7 °C 1014.7 hPa Calm     81% 0.0 mm 0 W/m2
21:34 10 °C 7 °C 1014.7 hPa Calm     81% 0.0 mm 0 W/m2
21:39 10 °C 7 °C 1014.7 hPa Calm     82% 0.0 mm 0 W/m2
21:44 10 °C 7 °C 1014.7 hPa Calm     82% 0.0 mm 0 W/m2
21:49 10 °C 7 °C 1014.8 hPa Calm     83% 0.0 mm 0 W/m2
21:54 10 °C 7 °C 1014.8 hPa Calm     84% 0.0 mm 0 W/m2
21:59 10 °C 7 °C 1014.8 hPa Calm     84% 0.0 mm 0 W/m2
22:04 9 °C 7 °C 1014.9 hPa Calm     84% 0.0 mm 0 W/m2
22:09 9 °C 7 °C 1015.0 hPa Calm     84% 0.0 mm 0 W/m2
22:14 9 °C 7 °C 1015.0 hPa Calm     83% 0.0 mm 0 W/m2
22:19 9 °C 7 °C 1014.9 hPa Calm     83% 0.0 mm 0 W/m2
22:24 9 °C 7 °C 1014.9 hPa Calm     84% 0.0 mm 0 W/m2
22:29 9 °C 7 °C 1014.9 hPa Calm     85% 0.0 mm 0 W/m2
22:34 9 °C 7 °C 1014.8 hPa Calm     85% 0.0 mm 0 W/m2
22:39 9 °C 7 °C 1014.9 hPa Calm     86% 0.0 mm 0 W/m2
22:44 9 °C 7 °C 1014.8 hPa Calm     86% 0.0 mm 0 W/m2
22:49 9 °C 7 °C 1014.7 hPa Calm     86% 0.0 mm 0 W/m2
22:54 9 °C 7 °C 1014.7 hPa Calm     86% 0.0 mm 0 W/m2
22:59 9 °C 7 °C 1014.8 hPa Calm     86% 0.0 mm 0 W/m2
23:04 9 °C 7 °C 1014.8 hPa Calm     87% 0.0 mm 0 W/m2
23:09 9 °C 7 °C 1014.7 hPa Calm     87% 0.0 mm 0 W/m2
23:14 9 °C 7 °C 1014.7 hPa Calm     87% 0.0 mm 0 W/m2
23:19 9 °C 7 °C 1014.6 hPa Calm     87% 0.0 mm 0 W/m2
23:24 9 °C 7 °C 1014.6 hPa Calm     88% 0.0 mm 0 W/m2
23:29 9 °C 7 °C 1014.7 hPa Calm     87% 0.0 mm 0 W/m2
23:34 9 °C 7 °C 1014.7 hPa Calm     87% 0.0 mm 0 W/m2
23:39 9 °C 7 °C 1014.7 hPa Calm     87% 0.0 mm 0 W/m2
23:44 9 °C 7 °C 1014.7 hPa Calm     88% 0.0 mm 0 W/m2
23:49 9 °C 7 °C 1014.7 hPa Calm     89% 0.0 mm 0 W/m2
23:54 9 °C 7 °C 1014.5 hPa Calm     89% 0.0 mm 0 W/m2
23:59 9 °C 7 °C 1014.6 hPa Calm     88% 0.0 mm 0 W/m2
Compliments of Weather Underground - 4.25 mb